Time;durP1;ratioP1;P1;durP2;ratioP2;P2;SDS_P1;SDS_P2;PMS_P1;PMS_P2;Temp;Humidity;BMP_temperature;BMP_pressure;BME280_temperature;BME280_humidity;BME280_pressure;Samples;Min_cycle;Max_cycle;Signal;HPM_P1;HPM_P2
2021/11/05 00:00:04;;;;;;;13.82;11.52;;;;;;;7.98;78.08;99824.19;4996085;28;20052;-64
2021/11/05 00:02:32;;;;;;;16.23;12.23;;;;;;;7.97;78.23;99828.47;5015049;28;20474;-64
2021/11/05 00:04:58;;;;;;;17.58;13.88;;;;;;;7.96;78.13;99834.47;5015224;28;20053;-64
2021/11/05 00:07:23;;;;;;;15.52;12.07;;;;;;;7.94;78.29;99843.91;5015433;28;20041;-64
2021/11/05 00:09:49;;;;;;;18.10;11.35;;;;;;;7.92;78.40;99843.84;4999210;28;20073;-64
2021/11/05 00:12:14;;;;;;;16.92;12.05;;;;;;;7.93;78.29;99848.19;4999356;28;20049;-64
2021/11/05 00:14:41;;;;;;;17.70;11.90;;;;;;;7.93;78.32;99845.59;4999168;28;20124;-64
2021/11/05 00:17:08;;;;;;;21.80;13.70;;;;;;;7.91;78.34;99857.59;5015013;28;20129;-64
2021/11/05 00:19:34;;;;;;;15.30;11.32;;;;;;;7.92;78.46;99856.75;4999138;28;20060;-64
2021/11/05 00:22:00;;;;;;;15.32;11.70;;;;;;;7.91;78.21;99857.59;4999371;28;20485;-64
2021/11/05 00:24:25;;;;;;;15.38;11.55;;;;;;;7.92;78.26;99867.06;4999070;28;20036;-64
2021/11/05 00:26:53;;;;;;;18.05;12.68;;;;;;;7.94;78.42;99867.13;5015799;28;20120;-64
2021/11/05 00:29:19;;;;;;;23.20;12.27;;;;;;;7.92;78.04;99866.22;4998833;28;20080;-64
2021/11/05 00:31:44;;;;;;;15.07;12.38;;;;;;;7.92;78.64;99867.06;4998851;28;20041;-64
2021/11/05 00:34:17;;;;;;;17.42;13.40;;;;;;;7.95;78.28;99873.16;4999155;28;20045;-64
2021/11/05 00:36:44;;;;;;;15.07;12.40;;;;;;;7.95;78.09;99871.44;4999337;28;20120;-64
2021/11/05 00:39:10;;;;;;;17.17;12.73;;;;;;;7.95;78.26;99875.72;4999349;28;20041;-64
2021/11/05 00:41:35;;;;;;;17.73;12.35;;;;;;;7.96;78.19;99887.81;4998859;28;20129;-64
2021/11/05 00:44:01;;;;;;;13.43;12.02;;;;;;;7.97;78.33;99884.38;5033006;28;20048;-64
2021/11/05 00:46:26;;;;;;;18.05;11.70;;;;;;;7.97;78.02;99893.00;4998990;28;20045;-65
2021/11/05 00:48:52;;;;;;;18.23;12.80;;;;;;;7.95;78.22;99899.81;5018334;28;20037;-64
2021/11/05 00:51:18;;;;;;;14.88;12.05;;;;;;;7.95;78.11;99902.41;5018969;28;20046;-64
2021/11/05 00:53:43;;;;;;;14.30;11.60;;;;;;;7.95;78.23;99896.38;5036288;28;20404;-64
2021/11/05 00:56:08;;;;;;;17.45;12.02;;;;;;;7.93;78.15;99902.38;5018445;28;20042;-64
2021/11/05 00:58:34;;;;;;;21.55;12.35;;;;;;;7.93;78.13;99904.97;5002205;28;20492;-64
2021/11/05 01:00:59;;;;;;;14.60;12.00;;;;;;;7.95;78.31;99906.69;5035945;28;20487;-64
2021/11/05 01:03:25;;;;;;;17.33;12.10;;;;;;;7.94;78.05;99911.00;5018092;28;20132;-64
2021/11/05 01:05:50;;;;;;;15.60;13.23;;;;;;;7.94;78.12;99916.16;5018370;28;20095;-64
2021/11/05 01:08:16;;;;;;;15.77;11.25;;;;;;;7.95;78.26;99917.03;5018634;28;20044;-64
2021/11/05 01:10:41;;;;;;;15.75;12.75;;;;;;;7.93;77.97;99924.75;5001950;28;20377;-64
2021/11/05 01:13:07;;;;;;;14.50;11.27;;;;;;;7.93;78.10;99930.75;5018531;28;20384;-64
2021/11/05 01:15:33;;;;;;;17.02;11.45;;;;;;;7.95;77.85;99928.22;5035774;28;20041;-64
2021/11/05 01:17:59;;;;;;;15.70;12.18;;;;;;;7.94;78.07;99926.50;5001781;28;20034;-64
2021/11/05 01:20:25;;;;;;;15.13;11.80;;;;;;;7.93;78.08;99930.75;5001721;28;20046;-64
2021/11/05 01:22:51;;;;;;;14.10;11.05;;;;;;;7.93;78.13;99928.19;5018127;28;20037;-65
2021/11/05 01:25:17;;;;;;;18.38;12.15;;;;;;;7.92;77.92;99939.34;5001669;28;20041;-64
2021/11/05 01:27:44;;;;;;;12.77;10.85;;;;;;;7.92;78.25;99938.47;5001831;28;20041;-64
2021/11/05 01:30:10;;;;;;;14.40;10.95;;;;;;;7.93;78.14;99935.91;5018138;28;20041;-65
2021/11/05 01:32:37;;;;;;;14.23;11.95;;;;;;;7.92;78.19;99941.91;5001216;28;20485;-64
2021/11/05 01:35:04;;;;;;;14.57;11.65;;;;;;;7.95;78.07;99948.00;5002156;28;20073;-65
2021/11/05 01:37:30;;;;;;;16.08;11.73;;;;;;;7.94;78.06;99952.28;5001696;28;20041;-64
2021/11/05 01:39:55;;;;;;;15.32;11.63;;;;;;;7.93;78.02;99951.41;5001384;28;20489;-64
2021/11/05 01:42:21;;;;;;;21.20;12.98;;;;;;;7.94;78.19;99967.78;5001473;28;20029;-64
2021/11/05 01:44:47;;;;;;;16.73;12.98;;;;;;;7.93;77.85;99954.00;5017396;28;20041;-64
2021/11/05 01:47:12;;;;;;;14.88;11.75;;;;;;;7.93;78.06;99959.16;5017527;28;20034;-64
2021/11/05 01:49:38;;;;;;;15.75;12.40;;;;;;;7.93;78.23;99961.72;5017610;28;20547;-64
2021/11/05 01:52:04;;;;;;;17.50;12.27;;;;;;;7.92;78.23;99967.72;5035112;28;20044;-64
2021/11/05 01:54:30;;;;;;;16.67;12.65;;;;;;;7.92;78.25;99967.72;5017770;28;20443;-64
2021/11/05 01:56:55;;;;;;;16.23;13.13;;;;;;;7.92;78.08;99967.72;5001056;28;20487;-65
2021/11/05 01:59:29;;;;;;;14.65;11.70;;;;;;;7.93;77.77;99972.06;5017525;28;20045;-64
2021/11/05 02:01:56;;;;;;;19.88;12.80;;;;;;;7.90;78.01;99959.06;5001046;28;20041;-64
2021/11/05 02:04:22;;;;;;;18.80;12.98;;;;;;;7.93;77.97;99969.47;5000762;28;20049;-65
2021/11/05 02:06:50;;;;;;;13.13;10.70;;;;;;;7.92;77.92;99974.59;5001566;28;20049;-64
2021/11/05 02:09:23;;;;;;;17.30;11.57;;;;;;;7.90;77.74;99973.69;5000880;28;20148;-64
2021/11/05 02:11:52;;;;;;;15.20;11.45;;;;;;;7.91;77.99;99980.59;5017412;28;20065;-65
2021/11/05 02:14:20;;;;;;;15.65;12.18;;;;;;;7.90;78.02;99987.44;5000997;28;20146;-64
2021/11/05 02:16:51;;;;;;;15.35;12.07;;;;;;;7.90;77.99;99990.03;5000730;28;20034;-65
2021/11/05 02:19:20;;;;;;;16.40;11.15;;;;;;;7.89;78.15;99984.84;5001230;28;20033;-64
2021/11/05 02:21:48;;;;;;;18.17;12.57;;;;;;;7.87;77.99;99983.94;5000817;28;20038;-64
2021/11/05 02:24:15;;;;;;;16.10;11.43;;;;;;;7.87;78.09;99992.53;5000720;28;20045;-64
2021/11/05 02:26:43;;;;;;;15.63;11.25;;;;;;;7.88;77.86;99996.00;5000618;28;20048;-65
2021/11/05 02:29:09;;;;;;;17.83;12.38;;;;;;;7.87;78.05;100007.16;5000183;28;20156;-64
2021/11/05 02:31:35;;;;;;;14.88;12.82;;;;;;;7.86;78.15;100006.25;5000375;28;20042;-64
2021/11/05 02:34:01;;;;;;;16.95;12.27;;;;;;;7.86;78.15;100019.16;5000348;28;20091;-64
2021/11/05 02:36:27;;;;;;;16.10;12.07;;;;;;;7.86;77.88;100008.84;5000350;28;20471;-64
2021/11/05 02:38:53;;;;;;;15.15;11.40;;;;;;;7.87;77.86;100014.88;5000362;28;20036;-64
2021/11/05 02:41:22;;;;;;;14.98;11.55;;;;;;;7.85;77.98;100012.28;4999987;28;20037;-64
2021/11/05 02:43:49;;;;;;;12.82;11.07;;;;;;;7.86;77.60;100015.72;5000135;28;20444;-64
2021/11/05 02:46:14;;;;;;;13.88;11.35;;;;;;;7.86;77.84;100015.72;5000456;28;20045;-64
2021/11/05 02:48:41;;;;;;;14.98;11.52;;;;;;;7.86;77.87;100010.56;5000499;28;20045;-64
2021/11/05 02:51:08;;;;;;;17.17;11.60;;;;;;;7.85;78.01;100021.72;5000134;28;20488;-64
2021/11/05 02:53:36;;;;;;;13.65;10.77;;;;;;;7.85;77.74;100022.59;5016449;28;20092;-64
2021/11/05 02:56:02;;;;;;;14.48;11.75;;;;;;;7.84;77.97;100025.13;4999907;28;20037;-64
2021/11/05 02:58:28;;;;;;;14.90;11.27;;;;;;;7.83;77.82;100026.84;4999937;28;20033;-64
2021/11/05 03:00:55;;;;;;;15.27;11.63;;;;;;;7.85;77.92;100039.78;5016305;28;20494;-64
2021/11/05 03:03:20;;;;;;;12.88;10.70;;;;;;;7.85;78.09;100034.63;5015959;28;20057;-65
2021/11/05 03:05:46;;;;;;;14.82;11.48;;;;;;;7.84;78.00;100036.34;4999922;28;20041;-65
2021/11/05 03:08:11;;;;;;;14.48;11.00;;;;;;;7.84;77.57;100033.75;4999599;28;20473;-64
2021/11/05 03:10:37;;;;;;;17.42;12.18;;;;;;;7.84;78.05;100038.03;4999505;28;20045;-64
2021/11/05 03:13:04;;;;;;;11.98;10.38;;;;;;;7.84;77.78;100041.50;4999443;28;20067;-65
2021/11/05 03:15:29;;;;;;;13.52;11.13;;;;;;;7.84;77.54;100046.66;4999783;28;20060;-64
2021/11/05 03:18:00;;;;;;;14.93;11.02;;;;;;;7.85;77.93;100052.69;5015935;28;20488;-64
2021/11/05 03:20:26;;;;;;;17.02;11.05;;;;;;;7.84;77.95;100051.81;4999727;28;20103;-65
2021/11/05 03:22:52;;;;;;;11.95;9.52;;;;;;;7.83;77.77;100059.50;4999397;28;20038;-64
2021/11/05 03:25:19;;;;;;;12.73;9.50;;;;;;;7.82;77.68;100056.06;5015651;28;20037;-64
2021/11/05 03:27:45;;;;;;;15.60;10.32;;;;;;;7.82;77.81;100058.63;4999499;28;20045;-64
2021/11/05 03:30:14;;;;;;;15.00;9.82;;;;;;;7.82;77.96;100065.50;4999512;28;20048;-64
2021/11/05 03:32:43;;;;;;;11.82;10.23;;;;;;;7.81;77.70;100072.38;4999678;28;20045;-64
2021/11/05 03:35:09;;;;;;;15.88;10.75;;;;;;;7.80;77.80;100073.19;4999288;28;20060;-64
2021/11/05 03:37:35;;;;;;;12.48;9.93;;;;;;;7.80;77.82;100080.06;5015844;28;20070;-64
2021/11/05 03:40:07;;;;;;;16.15;9.75;;;;;;;7.78;77.58;100083.47;4999317;28;20504;-64
2021/11/05 03:42:33;;;;;;;14.57;11.13;;;;;;;7.78;77.82;100093.78;4999442;28;20128;-64
2021/11/05 03:44:59;;;;;;;13.32;11.25;;;;;;;7.78;77.61;100095.50;4999357;28;20034;-64
2021/11/05 03:47:25;;;;;;;13.73;10.25;;;;;;;7.78;77.90;100100.66;4999330;28;20041;-65
2021/11/05 03:49:51;;;;;;;12.20;10.15;;;;;;;7.77;77.93;100102.38;4999403;28;20069;-64
2021/11/05 03:52:17;;;;;;;12.98;10.15;;;;;;;7.77;77.90;100099.81;4999112;28;20092;-64
2021/11/05 03:54:43;;;;;;;12.20;9.70;;;;;;;7.77;77.75;100109.22;4999160;28;20033;-64
2021/11/05 03:57:10;;;;;;;16.08;10.82;;;;;;;7.76;77.93;100110.06;4999333;28;20029;-64
2021/11/05 03:59:35;;;;;;;11.93;9.20;;;;;;;7.77;77.75;100119.56;4999231;28;20042;-64
2021/11/05 04:02:01;;;;;;;14.00;9.38;;;;;;;7.76;78.12;100118.69;4999299;28;20041;-64
2021/11/05 04:04:27;;;;;;;14.50;10.02;;;;;;;7.75;77.86;100124.69;4999056;28;20053;-64
2021/11/05 04:06:53;;;;;;;11.82;9.18;;;;;;;7.75;77.78;100128.94;4999638;28;20374;-65
2021/11/05 04:09:18;;;;;;;11.57;9.68;;;;;;;7.75;77.56;100132.41;5015215;28;20460;-64
2021/11/05 04:11:44;;;;;;;13.68;10.23;;;;;;;7.77;77.85;100137.63;4998867;28;20044;-64
2021/11/05 04:14:10;;;;;;;12.23;9.18;;;;;;;7.76;77.76;100135.84;5015327;28;20036;-64
2021/11/05 04:16:36;;;;;;;13.60;9.85;;;;;;;7.74;77.53;100143.56;5015598;28;20091;-64
2021/11/05 04:19:02;;;;;;;13.07;9.57;;;;;;;7.77;77.77;100151.41;4998945;28;20037;-64
2021/11/05 04:21:28;;;;;;;13.80;9.88;;;;;;;7.75;77.74;100157.34;4999043;28;20084;-65
2021/11/05 04:23:53;;;;;;;15.18;9.68;;;;;;;7.76;77.86;100151.34;5002349;28;20037;-64
2021/11/05 04:26:19;;;;;;;12.45;9.18;;;;;;;7.75;77.94;100158.22;5002751;28;20045;-64
2021/11/05 04:28:45;;;;;;;16.83;10.05;;;;;;;7.75;77.68;100152.16;5002982;28;20061;-64
2021/11/05 04:31:10;;;;;;;12.45;9.68;;;;;;;7.76;77.67;100162.56;5019233;28;20041;-65
2021/11/05 04:33:37;;;;;;;14.05;9.93;;;;;;;7.77;77.83;100173.72;5002740;28;20064;-64
2021/11/05 04:36:04;;;;;;;14.57;10.30;;;;;;;7.76;77.73;100171.97;5002656;28;20037;-64
2021/11/05 04:38:30;;;;;;;12.23;9.80;;;;;;;7.75;77.88;100185.72;5002443;28;20132;-64
2021/11/05 04:40:56;;;;;;;12.13;8.82;;;;;;;7.76;77.74;100179.72;5018589;28;20128;-64
2021/11/05 04:43:22;;;;;;;13.90;10.23;;;;;;;7.76;77.83;100179.72;5019153;28;20086;-64
2021/11/05 04:45:47;;;;;;;12.02;9.75;;;;;;;7.76;77.56;100192.63;5036463;28;20492;-64
2021/11/05 04:48:13;;;;;;;13.52;9.85;;;;;;;7.76;77.83;100192.63;5018759;28;20030;-64
2021/11/05 04:50:38;;;;;;;13.88;10.25;;;;;;;7.77;77.78;100200.44;5018654;28;20040;-65
2021/11/05 04:53:05;;;;;;;12.20;9.32;;;;;;;7.78;77.67;100209.03;5002262;28;20480;-64
2021/11/05 04:55:31;;;;;;;11.57;8.75;;;;;;;7.76;77.85;100206.41;5001997;28;20072;-64
2021/11/05 04:57:57;;;;;;;12.90;10.52;;;;;;;7.76;77.70;100209.00;5002272;28;20090;-65
2021/11/05 05:00:25;;;;;;;12.23;9.32;;;;;;;7.77;77.79;100222.75;5002595;28;20128;-64
2021/11/05 05:02:52;;;;;;;12.13;9.02;;;;;;;7.77;77.61;100220.19;5002202;28;20477;-64
2021/11/05 05:05:18;;;;;;;11.13;9.23;;;;;;;7.78;77.79;100224.50;5001995;28;20033;-65
2021/11/05 05:07:45;;;;;;;10.35;9.23;;;;;;;7.79;77.75;100218.53;5001836;28;20037;-64
2021/11/05 05:10:11;;;;;;;10.65;8.77;;;;;;;7.77;78.07;100223.66;5002096;28;20117;-64
2021/11/05 05:12:37;;;;;;;12.80;10.30;;;;;;;7.77;77.87;100228.81;5018462;28;20592;-64
2021/11/05 05:15:04;;;;;;;12.48;9.75;;;;;;;7.77;77.90;100228.81;5001787;28;20037;-65
2021/11/05 05:17:30;;;;;;;11.40;8.07;;;;;;;7.78;77.90;100237.41;5001974;28;20033;-64
2021/11/05 05:19:55;;;;;;;14.35;9.25;;;;;;;7.79;77.94;100234.00;5018243;28;20129;-64
2021/11/05 05:22:21;;;;;;;16.73;10.15;;;;;;;7.78;77.78;100242.56;5018146;28;20469;-64
2021/11/05 05:24:46;;;;;;;13.05;8.93;;;;;;;7.79;77.93;100241.75;5017810;28;20060;-64
2021/11/05 05:27:13;;;;;;;11.50;9.32;;;;;;;7.78;77.86;100240.84;5035774;28;20588;-64
2021/11/05 05:29:38;;;;;;;10.15;9.13;;;;;;;7.78;77.65;100247.72;5001665;28;20037;-64
2021/11/05 05:32:04;;;;;;;12.52;9.82;;;;;;;7.77;77.66;100246.88;5002247;28;20512;-64
2021/11/05 05:36:50;;;;;;;12.80;9.88;;;;;;;7.78;77.84;100252.91;5123324;27;20589;-64
2021/11/05 05:39:15;;;;;;;10.77;9.05;;;;;;;7.76;77.65;100251.97;5106638;28;20071;-65
2021/11/05 05:41:41;;;;;;;14.98;10.45;;;;;;;7.78;77.78;100263.22;5106669;28;20511;-65
2021/11/05 05:44:07;;;;;;;13.40;9.32;;;;;;;7.78;77.87;100271.81;5106513;28;20047;-64
2021/11/05 05:46:32;;;;;;;13.57;10.07;;;;;;;7.77;77.58;100259.78;5072732;28;20056;-64
2021/11/05 05:48:57;;;;;;;11.55;8.48;;;;;;;7.76;78.13;100260.59;5089653;28;20032;-64
2021/11/05 05:51:25;;;;;;;12.82;8.50;;;;;;;7.77;77.92;100269.19;5106492;28;20040;-64
2021/11/05 05:53:51;;;;;;;9.23;8.23;;;;;;;7.77;77.78;100282.09;5089315;28;20074;-64
2021/11/05 05:56:16;;;;;;;12.93;9.50;;;;;;;7.76;77.78;100282.94;5072583;28;20067;-64
2021/11/05 05:58:42;;;;;;;11.88;9.75;;;;;;;7.77;77.62;100295.00;5123386;28;20031;-65
2021/11/05 06:01:07;;;;;;;10.35;9.02;;;;;;;7.76;77.73;100290.66;5090623;28;20101;-64
2021/11/05 06:03:33;;;;;;;12.95;9.40;;;;;;;7.77;77.71;100295.91;5106078;28;20040;-64
2021/11/05 06:05:58;;;;;;;15.18;9.35;;;;;;;7.76;77.73;100293.25;5072557;28;20047;-64
2021/11/05 06:08:24;;;;;;;11.38;8.38;;;;;;;7.76;77.91;100298.41;5072211;28;20419;-64
2021/11/05 06:10:50;;;;;;;10.32;8.43;;;;;;;7.77;77.71;100300.16;5106011;28;20119;-64
2021/11/05 06:13:15;;;;;;;11.25;9.20;;;;;;;7.76;77.70;100304.47;5072043;28;20032;-64
2021/11/05 06:15:41;;;;;;;12.10;9.60;;;;;;;7.77;77.60;100306.22;5072602;28;20041;-64
2021/11/05 06:18:07;;;;;;;12.07;9.02;;;;;;;7.77;77.78;100311.38;5072017;28;20032;-64
2021/11/05 06:20:32;;;;;;;11.85;9.80;;;;;;;7.77;78.00;100313.06;5106120;28;20051;-64
2021/11/05 06:23:00;;;;;;;14.05;9.65;;;;;;;7.77;77.55;100318.22;5106292;28;20036;-64
2021/11/05 06:25:31;;;;;;;11.50;9.77;;;;;;;7.76;78.04;100322.53;5071871;28;20042;-64
2021/11/05 06:27:57;;;;;;;12.35;10.23;;;;;;;7.77;77.71;100333.72;5089387;28;20032;-65
2021/11/05 06:30:23;;;;;;;13.63;8.40;;;;;;;7.76;77.90;100334.53;5072418;28;20040;-64
2021/11/05 06:32:50;;;;;;;11.85;9.63;;;;;;;7.76;77.57;100339.69;5088743;28;20455;-64
2021/11/05 06:35:15;;;;;;;11.77;9.55;;;;;;;7.76;77.67;100344.84;5071610;28;20048;-65
2021/11/05 06:37:41;;;;;;;13.82;10.02;;;;;;;7.75;77.83;100349.16;5089939;28;20123;-64
2021/11/05 06:40:10;;;;;;;10.52;8.57;;;;;;;7.76;77.69;100355.19;5105819;28;20495;-65
2021/11/05 06:42:37;;;;;;;11.23;9.57;;;;;;;7.76;77.77;100355.19;5105438;28;20040;-65
2021/11/05 06:45:03;;;;;;;10.75;9.05;;;;;;;7.76;77.65;100362.91;5088223;28;20036;-64
2021/11/05 06:47:29;;;;;;;12.63;9.73;;;;;;;7.75;77.83;100364.63;5096255;28;20135;-65
2021/11/05 06:49:56;;;;;;;11.65;9.40;;;;;;;7.75;77.96;100364.63;5058148;28;20032;-64
2021/11/05 06:52:21;;;;;;;11.15;9.07;;;;;;;7.76;77.51;100374.13;5091520;28;20104;-64
2021/11/05 06:54:47;;;;;;;11.25;8.65;;;;;;;7.76;77.58;100381.88;5092244;28;20119;-64
2021/11/05 06:57:12;;;;;;;11.45;8.90;;;;;;;7.75;78.08;100374.06;5074724;28;20044;-64
2021/11/05 06:59:38;;;;;;;10.77;9.02;;;;;;;7.76;78.11;100381.88;5058552;28;20063;-64
2021/11/05 07:02:04;;;;;;;11.35;10.15;;;;;;;7.77;77.73;100396.53;5074786;28;20395;-64
2021/11/05 07:04:30;;;;;;;11.35;9.32;;;;;;;7.77;78.00;100393.06;5057987;28;20033;-65
2021/11/05 07:06:56;;;;;;;15.35;9.45;;;;;;;7.76;77.69;100399.94;5091250;28;20047;-64
2021/11/05 07:09:23;;;;;;;10.05;8.90;;;;;;;7.76;78.10;100401.63;5108161;28;20094;-64
2021/11/05 07:11:49;;;;;;;11.60;9.07;;;;;;;7.77;77.97;100403.38;5091343;28;20500;-64
2021/11/05 07:14:15;;;;;;;12.07;9.38;;;;;;;7.77;78.11;100405.97;5091657;28;20048;-64
2021/11/05 07:16:41;;;;;;;11.27;8.68;;;;;;;7.77;77.86;100412.00;5057727;28;20123;-64
2021/11/05 07:19:07;;;;;;;10.13;8.88;;;;;;;7.77;77.83;100416.28;5108553;28;20135;-64
2021/11/05 07:21:33;;;;;;;11.18;9.13;;;;;;;7.77;77.83;100424.91;5075389;28;20463;-64
2021/11/05 07:24:03;;;;;;;14.88;10.05;;;;;;;7.77;77.87;100426.59;5057630;28;20040;-64
2021/11/05 07:26:42;;;;;;;10.55;8.95;;;;;;;7.77;78.11;100434.34;5108107;28;20036;-64
2021/11/05 07:29:11;;;;;;;12.60;9.43;;;;;;;7.76;77.83;100443.81;5057816;28;20446;-64
2021/11/05 07:31:42;;;;;;;12.60;8.57;;;;;;;7.77;77.79;100442.06;5090817;28;20028;-64
2021/11/05 07:34:08;;;;;;;10.95;9.05;;;;;;;7.77;78.16;100454.97;5057397;28;20032;-64
2021/11/05 07:36:34;;;;;;;11.90;8.80;;;;;;;7.77;77.66;100458.47;5090909;28;20049;-65
2021/11/05 07:38:59;;;;;;;11.32;8.35;;;;;;;7.76;77.64;100458.38;5075314;28;20392;-64
2021/11/05 07:41:25;;;;;;;13.32;9.88;;;;;;;7.77;78.10;100462.72;5090856;28;20040;-64
2021/11/05 07:43:52;;;;;;;10.43;8.07;;;;;;;7.77;77.94;100466.19;5091367;28;20047;-64
2021/11/05 07:46:19;;;;;;;14.88;8.32;;;;;;;7.76;77.97;100469.59;5057205;28;20491;-64
2021/11/05 07:48:44;;;;;;;12.32;8.88;;;;;;;7.75;77.76;100478.16;5090745;28;20036;-64
2021/11/05 07:51:10;;;;;;;9.98;8.10;;;;;;;7.77;77.65;100483.38;5090578;28;20029;-64
2021/11/05 07:53:38;;;;;;;12.05;8.45;;;;;;;7.77;77.66;100492.00;5074934;28;20036;-64
2021/11/05 07:56:07;;;;;;;13.27;8.10;;;;;;;7.78;78.06;100498.03;5073276;28;20056;-64
2021/11/05 07:58:33;;;;;;;12.80;8.45;;;;;;;7.78;77.76;100495.44;5055762;28;20500;-64
2021/11/05 08:00:58;;;;;;;12.13;8.35;;;;;;;7.78;77.59;100492.88;5090501;28;20047;-65
2021/11/05 08:03:25;;;;;;;11.88;8.25;;;;;;;7.78;77.86;100506.63;5073389;28;20040;-65
2021/11/05 08:05:50;;;;;;;10.98;8.77;;;;;;;7.79;77.69;100499.78;5090422;28;20068;-64
2021/11/05 08:08:16;;;;;;;12.57;8.77;;;;;;;7.78;78.04;100509.22;5073863;28;20071;-64
2021/11/05 08:10:42;;;;;;;10.48;8.00;;;;;;;7.78;77.79;100510.94;5090481;28;20044;-65
2021/11/05 08:13:07;;;;;;;13.93;8.20;;;;;;;7.80;77.56;100503.22;5090199;28;20037;-65
2021/11/05 08:15:34;;;;;;;22.02;8.45;;;;;;;7.80;78.05;100516.13;5073157;28;20040;-65
2021/11/05 08:17:59;;;;;;;10.32;7.72;;;;;;;7.81;77.95;100517.88;5056781;28;20040;-64
2021/11/05 08:20:25;;;;;;;10.07;8.10;;;;;;;7.78;77.95;100511.78;5090161;28;20089;-65
2021/11/05 08:22:50;;;;;;;10.52;7.70;;;;;;;7.80;78.03;100514.44;5073123;28;20083;-65
2021/11/05 08:25:18;;;;;;;11.80;8.10;;;;;;;7.79;77.89;100525.59;5107801;28;20127;-65
2021/11/05 08:27:44;;;;;;;13.88;7.65;;;;;;;7.81;77.66;100534.25;5056393;28;20407;-65
2021/11/05 08:30:18;;;;;;;12.15;8.18;;;;;;;7.80;77.91;100527.34;5089873;28;20036;-65
2021/11/05 08:32:44;;;;;;;16.55;8.38;;;;;;;7.81;77.97;100534.25;5056468;28;20033;-65
2021/11/05 08:35:11;;;;;;;12.20;8.48;;;;;;;7.81;77.88;100535.94;5056450;28;20530;-65
2021/11/05 08:37:37;;;;;;;13.63;7.57;;;;;;;7.82;77.98;100545.44;5056267;28;20609;-65
2021/11/05 08:40:04;;;;;;;17.20;9.88;;;;;;;7.82;78.15;100542.88;5072816;28;20043;-65
2021/11/05 08:42:30;;;;;;;16.20;8.85;;;;;;;7.83;77.73;100549.78;5056159;28;20503;-64
2021/11/05 08:44:56;;;;;;;15.73;8.90;;;;;;;7.82;77.95;100554.09;5074090;28;20060;-65
2021/11/05 08:47:21;;;;;;;15.88;8.20;;;;;;;7.83;77.88;100553.25;5072780;28;20495;-64
2021/11/05 08:49:52;;;;;;;19.27;8.95;;;;;;;7.83;78.01;100558.44;5072961;28;20033;-64
2021/11/05 08:52:18;;;;;;;15.80;8.27;;;;;;;7.83;77.99;100563.59;5090188;28;20124;-64
2021/11/05 08:54:43;;;;;;;18.08;9.10;;;;;;;7.85;77.86;100563.63;5073648;28;20479;-63
2021/11/05 08:57:09;;;;;;;18.02;8.57;;;;;;;7.85;77.91;100568.78;5089377;28;20036;-63
2021/11/05 08:59:35;;;;;;;17.10;9.27;;;;;;;7.85;77.89;100569.69;5073766;28;20051;-65
2021/11/05 09:02:02;;;;;;;16.23;8.75;;;;;;;7.87;77.86;100574.88;5072033;28;20046;-65
2021/11/05 09:04:28;;;;;;;14.02;8.10;;;;;;;7.87;77.74;100582.63;5055675;28;20563;-64
2021/11/05 09:06:53;;;;;;;18.50;9.50;;;;;;;7.87;77.74;100591.25;5089217;28;20078;-65
2021/11/05 09:09:20;;;;;;;17.52;9.00;;;;;;;7.89;77.79;100586.16;5072527;28;20476;-65
2021/11/05 09:11:51;;;;;;;15.32;8.40;;;;;;;7.88;78.15;100586.97;5089072;28;20033;-64
2021/11/05 09:14:17;;;;;;;16.23;10.25;;;;;;;7.90;78.19;100588.78;5089519;28;20041;-65
2021/11/05 09:16:43;;;;;;;19.40;8.85;;;;;;;7.91;78.08;100593.13;5055429;28;20035;-65
2021/11/05 09:19:09;;;;;;;16.95;9.45;;;;;;;7.92;77.90;100600.03;5089203;28;20064;-65
2021/11/05 09:21:35;;;;;;;18.27;9.50;;;;;;;7.96;77.79;100600.16;5055693;28;20086;-65
2021/11/05 09:24:04;;;;;;;14.88;8.23;;;;;;;7.95;78.10;100603.56;5089470;28;20036;-65
2021/11/05 09:26:30;;;;;;;20.77;9.40;;;;;;;7.97;77.75;100604.50;5055551;28;20036;-65
2021/11/05 09:28:57;;;;;;;17.83;8.27;;;;;;;7.96;77.95;100611.34;5055415;28;20075;-65
2021/11/05 09:31:22;;;;;;;15.90;8.68;;;;;;;7.99;77.91;100610.59;5055682;28;20044;-65
2021/11/05 09:33:48;;;;;;;16.92;8.73;;;;;;;8.00;77.89;100617.50;5088984;28;20037;-65
2021/11/05 09:36:17;;;;;;;19.88;8.18;;;;;;;8.02;77.83;100615.88;5073895;28;20040;-64
2021/11/05 09:38:44;;;;;;;20.15;9.27;;;;;;;8.05;78.09;100618.53;5055483;28;20051;-65
2021/11/05 09:41:10;;;;;;;19.17;7.95;;;;;;;8.07;77.87;100619.47;5055243;28;20036;-65
2021/11/05 09:43:38;;;;;;;21.10;10.20;;;;;;;8.07;77.97;100620.38;5055118;28;20033;-64
2021/11/05 09:46:04;;;;;;;20.90;9.05;;;;;;;8.10;77.97;100627.34;5055395;28;20097;-64
2021/11/05 09:48:35;;;;;;;15.73;8.02;;;;;;;8.12;77.81;100629.94;5072069;28;20037;-64
2021/11/05 09:51:01;;;;;;;18.45;8.50;;;;;;;8.13;77.81;100630.03;5055832;28;20041;-64
2021/11/05 09:53:35;;;;;;;20.85;8.10;;;;;;;8.14;77.38;100634.38;5072320;28;20040;-64
2021/11/05 09:56:02;;;;;;;17.23;8.25;;;;;;;8.15;77.68;100633.53;5088898;28;20035;-64
2021/11/05 09:58:31;;;;;;;16.15;8.00;;;;;;;8.16;77.74;100635.31;5055757;28;20037;-64
2021/11/05 10:00:57;;;;;;;21.48;9.85;;;;;;;8.18;77.99;100648.25;5055242;28;20119;-64
2021/11/05 10:03:22;;;;;;;22.38;8.65;;;;;;;8.20;77.69;100641.44;5088554;28;20044;-64
2021/11/05 10:05:54;;;;;;;18.10;7.95;;;;;;;8.21;77.74;100656.13;5088576;28;20034;-64
2021/11/05 10:08:27;;;;;;;21.85;7.93;;;;;;;8.21;77.79;100651.81;5055459;28;20036;-64
2021/11/05 10:10:53;;;;;;;19.40;8.57;;;;;;;8.26;77.92;100659.72;5088749;28;20445;-64
2021/11/05 10:13:23;;;;;;;14.15;7.70;;;;;;;8.29;77.73;100662.41;5071768;28;20037;-64
2021/11/05 10:15:51;;;;;;;23.17;8.65;;;;;;;8.32;77.46;100661.66;5088610;28;20024;-64
2021/11/05 10:18:30;;;;;;;18.17;8.50;;;;;;;8.33;77.94;100661.72;5071671;28;20044;-64
2021/11/05 10:21:14;;;;;;;18.20;7.38;;;;;;;8.34;77.83;100657.41;5073101;28;20044;-64
2021/11/05 10:23:43;;;;;;;23.63;8.10;;;;;;;8.34;77.83;100670.31;5076512;28;20127;-64
2021/11/05 10:26:33;;;;;;;18.92;8.18;;;;;;;8.35;77.71;100669.50;5092420;28;20044;-64
2021/11/05 10:29:00;;;;;;;18.77;6.95;;;;;;;8.37;77.65;100670.44;5058658;28;20033;-64
2021/11/05 10:31:27;;;;;;;18.88;8.23;;;;;;;8.36;77.55;100669.56;5109456;28;20033;-64
2021/11/05 10:33:53;;;;;;;17.45;6.63;;;;;;;8.38;77.55;100672.19;5092310;28;20514;-65
2021/11/05 10:36:22;;;;;;;20.77;8.23;;;;;;;8.39;77.52;100676.53;5074561;28;20530;-64
2021/11/05 10:38:52;;;;;;;17.92;6.57;;;;;;;8.42;77.60;100675.75;5092023;28;20040;-64
2021/11/05 10:41:21;;;;;;;17.05;7.30;;;;;;;8.42;77.44;100678.34;5074893;28;20161;-65
2021/11/05 10:44:11;;;;;;;14.77;6.60;;;;;;;8.43;77.45;100681.00;5075908;28;20044;-64
2021/11/05 10:46:42;;;;;;;14.38;6.07;;;;;;;8.42;77.40;100674.06;5058599;28;20040;-64
2021/11/05 10:49:22;;;;;;;14.90;6.53;;;;;;;8.45;77.64;100678.44;5058082;28;20097;-64
2021/11/05 10:51:47;;;;;;;19.77;6.57;;;;;;;8.47;77.87;100681.97;5058381;28;20033;-63
2021/11/05 10:54:13;;;;;;;17.00;6.97;;;;;;;8.46;77.64;100680.22;5074862;28;20459;-64
2021/11/05 10:56:40;;;;;;;16.75;5.90;;;;;;;8.47;77.67;100680.28;5074974;28;20040;-64
2021/11/05 10:59:10;;;;;;;16.95;6.20;;;;;;;8.48;77.68;100687.25;5058118;28;20094;-65
2021/11/05 11:01:37;;;;;;;14.98;5.70;;;;;;;8.51;77.52;100694.22;5092085;28;20032;-64
2021/11/05 11:04:06;;;;;;;12.85;5.43;;;;;;;8.50;77.92;100682.97;5058511;28;20028;-64
2021/11/05 11:06:50;;;;;;;16.70;6.20;;;;;;;8.49;77.46;100690.69;5076007;28;20082;-64
2021/11/05 11:09:21;;;;;;;18.25;5.38;;;;;;;8.52;77.50;100688.22;5057889;28;20047;-64
2021/11/05 11:11:49;;;;;;;12.32;5.30;;;;;;;8.55;77.51;100690.91;5074652;28;20033;-64
2021/11/05 11:14:18;;;;;;;12.48;4.70;;;;;;;8.52;77.31;100689.09;5091693;28;20407;-64
2021/11/05 11:16:52;;;;;;;15.07;5.93;;;;;;;8.53;77.51;100690.84;5057752;28;20025;-64
2021/11/05 11:19:21;;;;;;;15.57;5.55;;;;;;;8.56;77.64;100692.69;5074762;28;20036;-64
2021/11/05 11:21:46;;;;;;;10.88;4.22;;;;;;;8.53;77.43;100693.44;5075194;28;20492;-64
2021/11/05 11:24:16;;;;;;;12.73;4.72;;;;;;;8.53;77.52;100693.44;5074700;28;20101;-64